Aberdeen Regional, SD

1:09 PM CDT on July 23, 2014 (GMT -0500)
Aberdeen Regional (KABR) Elev 1299 ft | 45.44 °N, 98.41 °W | Change Station

Current weather conditions updated 16 minutes ago

Partly Cloudy
Partly Cloudy
77 °F
Feels Like 77 °F
N
10
Wind Variable Wind from SSE
Gusts 16 mph

Today is forecast to be nearly the same temperature as yesterday.

Today
High -- | Low -- °F
--% Chance of Precip.
Yesterday
High -- | Low -- °F
Precip. -- in
6:07 AM 9:11 PM
Waning Crescent, 9% visible
Pressure 30.26 in
Visibility 10.0 miles
Clouds Few 10000 ft
Dew Point 54 °F
Humidity 45%
Rainfall 0.00 in
Snow Depth Not available.
UV 10 out of 12
Pollen 7.00 out of 12
Air Quality Not available.
Flu Activity Not available.
METAR KABR 231753Z AUTO 16009G14KT 10SM FEW100 25/12 A3027 RMK AO2 SLP247 T02500122 10250 20128 56009

More Conditions Fewer Conditions

Pressure 30.26 in
Visibility 10.0 miles
Clouds Few 10000 ft
Dew Point 54 °F
Humidity 45%
Rainfall 0.00 in
Snow Depth Not available.
UV 10 out of 12
Pollen 7.00 out of 12
Air Quality Not available.
Flu Activity Not available.
METAR KABR 231753Z AUTO 16009G14KT 10SM FEW100 25/12 A3027 RMK AO2 SLP247 T02500122 10250 20128 56009

More Conditions Fewer Conditions

10-Day Weather Forecast

Almanac

Astronomy

Jul. 23, 2014 Rise Set
Actual Time 6:07 AM CDT 9:11 PM CDT
Civil Twilight 5:32 AM CDT 9:47 PM CDT
Nautical Twilight 4:46 AM CDT 10:32 PM CDT
Astronomical Twilight 3:51 AM CDT 11:26 PM CDT
Moon 3:29 AM CDT 6:40 PM CDT
Length of Visible Light 16h 14m
Length of Day
15h 04m
Tomorrow will be 2m 6s shorter.
Waning Crescent, 9% of the Moon is Illuminated
Today
Waning Crescent
Jul 26
New
Aug 3
First Quarter
Aug 10
Full
Aug 17
Last Quarter

Today's Extremes

State Highs State Lows

Community

WunderPhotos

Upload Photos

1,736,692 photos uploaded!

Nearby

Snow Depth

Station Depth Elevation
Blind Park 1 in 6890 ft

Earthquake Activity

City Distance Mag. Time & Date
No recent earthquake activity has been reported nearby.
Minimum magnitude displayed is 2.5.

Coastal Water Temperatures

Place Temperature
No Stations Reporting

Nearby Weather Stations

Station Location Temp. Heat Index Dew Point Humidity Wind Precip. Elev Updated Type
Groton, SD 78.1 °F 79 °F 58 °F 50% SSE  at  5.0 mph 0.00 in / hr 1295 ft 1:06 PM CDT Normal
Willow Creek Lake, Frederick, SD 77.5 °F 79 °F 61 °F 57% ESE  at  6.0 mph 0.00 in / hr 1411 ft 1:03 PM CDT Normal

Show More Stations Show Fewer Stations